Portada
METAR-TAF:

METAR-TAF

Aeroports :

Moscou-Sheremetyevo, Rússia

Aeroport Internacional de Moscou-Xeremètievo

latitud: 55-59N, longitud: 037-30E, altitud: 190 m

Observació

L'informe es va fer fa 8 hores i 26 minuts, a les 15:00 UTC
Vent 10 kt del Oest/Nord-Oest
Temperatura -8°C
Humitat 79%
Pressió 1017 hPa
Visibilitat 10 km o més
Cel ennuvolat a una alçada de 2300 ft

METAR: UUEE 201500Z 29005MPS 9999 BKN023 M08/M11 Q1017 R24L/550340 R24R/550336 NOSIG

Hora: 02:26 (23:26 UTC)

Pronòstic

L'informe es va fer fa 9 hores i 36 minuts, a les 13:50 UTC
Pronòstic vàlid del 20 a les 15 UTC al 21 a les 15 UTC
Vent 10 kt del Oest/Nord-Oest
Visibilitat: 6000 m
Cel ennuvolat a una alçada de 1100 ft
Temporalment
l' 20 a les 15 UTC al 20 a les 21 UTC
Visibilitat: 3100 m
Núvols disperses a una alçada de 1200 ft, Cumulonimbus.
xàfecs de neu

TAF: UUEE 201350Z 2015/2115 30005MPS 6000 BKN011 TXM09/2015Z TNM16/2103Z TEMPO 2015/2021 3100 -SHSN SCT012CB

Observacions i pronòstics meteorològics de més de 4000 aeroports (METAR i TAF).

Les estacions disponibles són els punts grocs i vermells al mapa.

Posi el ratolí al punt desitjat per veure el nom de l'estació.

Feu clic per veure les observacions i els pronòstics meteorològics.

Per canviar el mapa: feu clic els botons verds amb una creu de color negre per apropar; al botó verd amb un guió per allunyar la imatge; o en les fletxes verdes per a mapes adjacents.


METAR-TAF: